createdAt,value
2022-09-21T00:00:41.109Z,10.60
2022-09-21T00:03:38.221Z,10.60
2022-09-21T00:06:35.958Z,10.66
2022-09-21T00:09:33.180Z,10.52
2022-09-21T00:12:31.476Z,10.54
2022-09-21T00:15:29.293Z,10.54
2022-09-21T00:18:26.406Z,10.47
2022-09-21T00:21:23.890Z,10.30
2022-09-21T00:24:21.172Z,10.12
2022-09-21T00:27:18.041Z,10.24
2022-09-21T00:30:15.519Z,10.40
2022-09-21T00:33:13.532Z,10.16
2022-09-21T00:36:12.478Z,9.99
2022-09-21T00:39:09.476Z,10.07
2022-09-21T00:42:23.419Z,10.11
2022-09-21T00:45:23.337Z,10.03
2022-09-21T00:48:20.010Z,10.02
2022-09-21T00:51:17.328Z,10.12
2022-09-21T00:54:18.048Z,10.11
2022-09-21T00:57:14.956Z,10.21
2022-09-21T01:00:12.540Z,10.66
2022-09-21T01:03:09.662Z,11.02
2022-09-21T01:06:07.607Z,10.75
2022-09-21T01:09:04.553Z,10.34
2022-09-21T01:12:49.279Z,10.09
2022-09-21T01:16:07.663Z,10.04
2022-09-21T01:19:27.400Z,10.14
2022-09-21T01:22:58.666Z,10.15
2022-09-21T01:26:15.005Z,10.08
2022-09-21T01:29:17.061Z,10.29
2022-09-21T01:32:20.900Z,10.54
2022-09-21T01:35:20.557Z,10.65
2022-09-21T01:38:23.881Z,10.45
2022-09-21T01:41:22.999Z,10.00
2022-09-21T01:44:22.963Z,9.69
2022-09-21T01:47:20.350Z,9.53
2022-09-21T01:50:17.497Z,9.43
2022-09-21T01:53:26.152Z,9.25
2022-09-21T01:56:43.978Z,9.34
2022-09-21T01:59:55.797Z,9.33
2022-09-21T02:02:55.858Z,9.34
2022-09-21T02:05:53.850Z,9.45
2022-09-21T02:08:51.085Z,9.75
2022-09-21T02:11:48.459Z,9.82
2022-09-21T02:14:45.805Z,9.55
2022-09-21T02:18:14.234Z,9.41
2022-09-21T02:21:41.699Z,9.34
2022-09-21T02:24:47.262Z,9.34
2022-09-21T02:28:13.829Z,9.25
2022-09-21T02:31:52.281Z,9.42
2022-09-21T02:34:53.998Z,9.32
2022-09-21T02:37:56.774Z,9.07
2022-09-21T02:40:56.869Z,9.01
2022-09-21T02:44:02.602Z,9.34
2022-09-21T02:47:13.157Z,9.57
2022-09-21T02:50:13.153Z,9.68
2022-09-21T02:53:10.262Z,9.72
2022-09-21T02:56:07.544Z,9.40
2022-09-21T02:59:04.848Z,9.05
2022-09-21T03:02:02.139Z,8.90
2022-09-21T03:04:59.091Z,9.11
2022-09-21T03:07:56.494Z,9.28
2022-09-21T03:10:53.946Z,9.16
2022-09-21T03:13:51.498Z,9.17
2022-09-21T03:16:48.386Z,9.06
2022-09-21T03:19:45.480Z,8.78
2022-09-21T03:22:42.477Z,8.87
2022-09-21T03:25:39.490Z,8.94
2022-09-21T03:28:36.052Z,8.92
2022-09-21T03:31:34.628Z,8.76
2022-09-21T03:34:34.381Z,8.66
2022-09-21T03:37:31.277Z,8.69
2022-09-21T03:40:28.576Z,8.77
2022-09-21T03:43:25.277Z,9.06
2022-09-21T03:46:23.134Z,9.18
2022-09-21T03:49:20.448Z,8.79
2022-09-21T03:52:17.384Z,8.66
2022-09-21T03:55:14.938Z,8.63
2022-09-21T03:58:12.408Z,8.94
2022-09-21T04:01:09.834Z,9.02
2022-09-21T04:04:07.538Z,8.81
2022-09-21T04:07:04.649Z,8.92
2022-09-21T04:10:05.492Z,8.83
2022-09-21T04:13:03.125Z,8.52
2022-09-21T04:16:00.479Z,8.63
2022-09-21T04:18:57.506Z,8.57
2022-09-21T04:21:56.051Z,8.28
2022-09-21T04:24:53.890Z,8.31
2022-09-21T04:27:52.302Z,8.53
2022-09-21T04:30:53.753Z,8.74
2022-09-21T04:33:52.075Z,9.38
2022-09-21T04:36:49.140Z,9.40
2022-09-21T04:39:46.872Z,9.17
2022-09-21T04:42:44.316Z,8.67
2022-09-21T04:45:41.278Z,8.36
2022-09-21T04:48:39.372Z,8.58
2022-09-21T04:51:36.885Z,8.74
2022-09-21T04:54:34.353Z,8.52
2022-09-21T04:57:31.548Z,8.47
2022-09-21T05:00:28.358Z,8.60
2022-09-21T05:03:25.627Z,8.49
2022-09-21T05:06:22.708Z,8.35
2022-09-21T05:09:38.100Z,8.26
2022-09-21T05:12:39.695Z,8.16
2022-09-21T05:15:39.499Z,8.13
2022-09-21T05:18:36.460Z,8.19
2022-09-21T05:21:33.383Z,8.10
2022-09-21T05:24:30.954Z,7.95
2022-09-21T05:27:28.642Z,7.88
2022-09-21T05:30:25.787Z,7.84
2022-09-21T05:33:23.243Z,7.65
2022-09-21T05:36:42.193Z,7.36
2022-09-21T05:39:39.821Z,7.39
2022-09-21T05:42:37.823Z,7.46
2022-09-21T05:45:35.504Z,7.59
2022-09-21T05:48:43.226Z,7.72
2022-09-21T05:52:17.821Z,7.85
2022-09-21T05:55:29.708Z,7.86
2022-09-21T05:59:04.409Z,7.81
2022-09-21T06:02:11.018Z,7.74
2022-09-21T06:05:12.491Z,7.80
2022-09-21T06:08:09.569Z,7.74
2022-09-21T06:11:06.489Z,7.54
2022-09-21T06:14:03.310Z,8.20
2022-09-21T06:17:00.599Z,8.22
2022-09-21T06:19:57.609Z,8.27
2022-09-21T06:23:00.365Z,8.31
2022-09-21T06:25:58.640Z,8.44
2022-09-21T06:28:56.555Z,8.41
2022-09-21T06:31:53.289Z,8.18
2022-09-21T06:34:50.579Z,8.24
2022-09-21T06:37:47.818Z,8.87
2022-09-21T06:40:44.469Z,9.37
2022-09-21T06:43:41.382Z,9.75
2022-09-21T06:46:38.513Z,9.62
2022-09-21T06:49:39.198Z,9.31
2022-09-21T06:52:40.621Z,9.18
2022-09-21T06:55:37.218Z,9.12
2022-09-21T06:58:34.759Z,8.93
2022-09-21T07:01:31.640Z,9.00
2022-09-21T07:04:29.492Z,9.05
2022-09-21T07:07:30.327Z,9.08
2022-09-21T07:10:27.673Z,9.22
2022-09-21T07:13:25.329Z,9.24
2022-09-21T07:16:23.422Z,9.34
2022-09-21T07:19:20.567Z,9.47
2022-09-21T07:22:17.650Z,9.60
2022-09-21T07:25:14.626Z,9.67
2022-09-21T07:28:12.074Z,9.75
2022-09-21T07:31:16.658Z,9.87
2022-09-21T07:34:13.594Z,10.07
2022-09-21T07:37:10.731Z,10.35
2022-09-21T07:40:08.354Z,10.77
2022-09-21T07:43:05.582Z,10.89
2022-09-21T07:46:02.619Z,10.88
2022-09-21T07:48:59.510Z,10.93
2022-09-21T07:52:01.446Z,11.05
2022-09-21T07:55:00.617Z,11.34
2022-09-21T07:58:16.285Z,11.42
2022-09-21T08:01:13.530Z,11.59
2022-09-21T08:04:10.976Z,11.72
2022-09-21T08:07:09.078Z,11.76
2022-09-21T08:10:07.303Z,12.05
2022-09-21T08:13:04.638Z,12.26
2022-09-21T08:16:02.241Z,12.44
2022-09-21T08:18:59.945Z,12.64
2022-09-21T08:21:58.116Z,12.92
2022-09-21T08:24:55.988Z,13.08
2022-09-21T08:27:58.292Z,13.16
2022-09-21T08:30:59.354Z,13.44
2022-09-21T08:33:57.654Z,13.56
2022-09-21T08:36:55.885Z,13.72
2022-09-21T08:39:53.738Z,13.85
2022-09-21T08:43:00.328Z,13.99
2022-09-21T08:45:57.539Z,13.94
2022-09-21T08:49:16.398Z,14.10
2022-09-21T08:52:16.903Z,14.13
2022-09-21T08:55:19.352Z,14.13
2022-09-21T08:58:29.788Z,14.10
2022-09-21T09:01:51.987Z,14.18
2022-09-21T09:05:18.458Z,14.56
2022-09-21T09:08:44.359Z,14.64
2022-09-21T09:11:49.053Z,14.68
2022-09-21T09:15:19.257Z,14.85
2022-09-21T09:18:43.999Z,14.99
2022-09-21T09:21:42.056Z,15.03
2022-09-21T09:24:43.684Z,15.11
2022-09-21T09:27:42.153Z,15.14
2022-09-21T09:30:39.405Z,15.17
2022-09-21T09:33:53.119Z,15.24
2022-09-21T09:37:02.699Z,15.52
2022-09-21T09:40:00.371Z,15.22
2022-09-21T09:43:19.821Z,15.08
2022-09-21T09:46:22.724Z,15.07
2022-09-21T09:49:54.140Z,15.37
2022-09-21T09:52:54.341Z,15.34
2022-09-21T09:55:55.785Z,15.41
2022-09-21T09:58:54.572Z,15.47
2022-09-21T10:02:05.274Z,15.98
2022-09-21T10:05:06.384Z,16.26
2022-09-21T10:08:03.967Z,16.18
2022-09-21T10:11:00.734Z,15.68
2022-09-21T10:13:57.671Z,15.93
2022-09-21T10:16:54.715Z,15.74
2022-09-21T10:20:01.478Z,15.45
2022-09-21T10:22:59.254Z,15.40
2022-09-21T10:26:01.340Z,15.57
2022-09-21T10:29:00.149Z,15.86
2022-09-21T10:32:02.307Z,16.04
2022-09-21T10:35:00.969Z,16.01
2022-09-21T10:38:11.033Z,16.12
2022-09-21T10:41:08.442Z,16.24
2022-09-21T10:44:14.077Z,16.66
2022-09-21T10:47:17.931Z,16.70
2022-09-21T10:50:35.235Z,16.47
2022-09-21T10:53:36.363Z,16.33
2022-09-21T10:56:33.812Z,16.35
2022-09-21T10:59:32.396Z,16.54
2022-09-21T11:02:35.645Z,16.74
2022-09-21T11:05:34.759Z,16.51
2022-09-21T11:08:55.134Z,16.20
2022-09-21T11:12:13.833Z,16.54
2022-09-21T11:15:25.498Z,16.76
2022-09-21T11:18:47.819Z,16.81
2022-09-21T11:22:01.733Z,16.85
2022-09-21T11:25:36.917Z,16.93
2022-09-21T11:28:47.557Z,17.33
2022-09-21T11:32:09.465Z,17.15
2022-09-21T11:35:19.197Z,17.07
2022-09-21T11:38:36.752Z,17.06
2022-09-21T11:41:40.554Z,16.97
2022-09-21T11:44:58.400Z,17.15
2022-09-21T11:48:08.646Z,17.15
2022-09-21T11:51:06.729Z,17.17
2022-09-21T11:54:16.752Z,17.45
2022-09-21T11:57:38.119Z,17.62
2022-09-21T12:01:03.508Z,17.63
2022-09-21T12:04:20.034Z,17.87
2022-09-21T12:07:50.138Z,18.17
2022-09-21T12:11:12.694Z,18.56
2022-09-21T12:14:42.426Z,18.72
2022-09-21T12:17:49.818Z,18.38
2022-09-21T12:20:55.523Z,18.40
2022-09-21T12:23:55.250Z,18.84
2022-09-21T12:26:56.745Z,19.21
2022-09-21T12:29:57.241Z,18.77
2022-09-21T12:33:04.180Z,18.82
2022-09-21T12:36:41.008Z,18.64
2022-09-21T12:39:46.188Z,18.41
2022-09-21T12:42:47.032Z,18.44
2022-09-21T12:46:08.205Z,18.45
2022-09-21T12:49:21.257Z,18.60
2022-09-21T12:52:21.662Z,18.22
2022-09-21T12:55:21.969Z,18.08
2022-09-21T12:58:30.348Z,18.25
2022-09-21T13:01:43.734Z,18.32
2022-09-21T13:05:01.268Z,18.22
2022-09-21T13:08:20.086Z,18.33
2022-09-21T13:11:21.538Z,18.29
2022-09-21T13:14:18.849Z,18.28
2022-09-21T13:17:34.189Z,18.41
2022-09-21T13:20:37.864Z,18.41
2022-09-21T13:23:42.046Z,18.35
2022-09-21T13:26:52.438Z,18.57
2022-09-21T13:29:49.608Z,18.49
2022-09-21T13:32:54.750Z,18.46
2022-09-21T13:36:02.060Z,18.48
2022-09-21T13:39:17.616Z,18.56
2022-09-21T13:42:33.105Z,18.52
2022-09-21T13:45:30.060Z,18.49
2022-09-21T13:48:29.620Z,18.70
2022-09-21T13:51:27.117Z,18.85
2022-09-21T13:54:26.150Z,18.79
2022-09-21T13:57:38.448Z,18.68
2022-09-21T14:00:54.839Z,18.67
2022-09-21T14:03:57.544Z,18.59
2022-09-21T14:06:55.771Z,18.81
2022-09-21T14:10:04.954Z,18.95
2022-09-21T14:13:02.827Z,19.09
2022-09-21T14:16:45.658Z,18.67
2022-09-21T14:19:42.789Z,18.41
2022-09-21T14:22:40.280Z,18.63
2022-09-21T14:25:56.774Z,18.77
2022-09-21T14:28:54.170Z,18.81
2022-09-21T14:31:54.636Z,18.77
2022-09-21T14:34:56.695Z,18.54
2022-09-21T14:38:01.750Z,18.19
2022-09-21T14:41:04.979Z,18.10
2022-09-21T14:44:01.912Z,18.16
2022-09-21T14:47:29.421Z,18.32
2022-09-21T14:50:30.066Z,18.37
2022-09-21T14:53:39.358Z,18.46
2022-09-21T14:56:39.953Z,18.45
2022-09-21T14:59:49.519Z,18.24
2022-09-21T15:02:47.205Z,18.06
2022-09-21T15:05:44.678Z,17.93
2022-09-21T15:09:15.323Z,17.81
2022-09-21T15:12:19.243Z,17.92
2022-09-21T15:15:27.152Z,18.13
2022-09-21T15:18:25.890Z,18.39
2022-09-21T15:21:30.495Z,18.25
2022-09-21T15:24:34.103Z,18.39
2022-09-21T15:27:33.256Z,18.51
2022-09-21T15:30:33.269Z,18.74
2022-09-21T15:33:33.321Z,18.74
2022-09-21T15:36:31.382Z,18.62
2022-09-21T15:39:30.840Z,18.58
2022-09-21T15:42:28.418Z,18.84
2022-09-21T15:45:25.845Z,18.52
2022-09-21T15:48:23.518Z,18.58
2022-09-21T15:51:27.073Z,18.59
2022-09-21T15:54:37.194Z,18.60
2022-09-21T15:57:41.608Z,18.95
2022-09-21T16:00:40.045Z,19.02
2022-09-21T16:03:37.101Z,18.99
2022-09-21T16:06:45.005Z,18.95
2022-09-21T16:09:43.734Z,18.73
2022-09-21T16:12:44.466Z,18.58
2022-09-21T16:15:42.970Z,18.68
2022-09-21T16:18:46.801Z,18.75
2022-09-21T16:21:44.138Z,18.57
2022-09-21T16:24:55.643Z,18.57
2022-09-21T16:27:56.785Z,18.61
2022-09-21T16:30:56.235Z,18.73
2022-09-21T16:33:53.019Z,18.45
2022-09-21T16:36:51.513Z,18.24
2022-09-21T16:39:48.773Z,18.28
2022-09-21T16:42:46.608Z,18.19
2022-09-21T16:45:45.242Z,17.99
2022-09-21T16:48:41.790Z,17.74
2022-09-21T16:51:39.377Z,17.63
2022-09-21T16:54:37.570Z,17.45
2022-09-21T16:57:34.942Z,17.45
2022-09-21T17:00:37.891Z,17.47
2022-09-21T17:03:34.856Z,17.29
2022-09-21T17:06:31.734Z,17.08
2022-09-21T17:09:39.472Z,16.81
2022-09-21T17:12:38.251Z,16.80
2022-09-21T17:15:36.389Z,16.76
2022-09-21T17:18:35.838Z,16.68
2022-09-21T17:21:33.160Z,16.68
2022-09-21T17:24:49.169Z,17.00
2022-09-21T17:27:49.299Z,16.93
2022-09-21T17:30:46.571Z,16.67
2022-09-21T17:33:44.017Z,16.49
2022-09-21T17:36:40.984Z,16.38
2022-09-21T17:39:38.199Z,16.40
2022-09-21T17:42:38.233Z,16.35
2022-09-21T17:46:04.800Z,16.21
2022-09-21T17:49:02.918Z,15.99
2022-09-21T17:52:19.334Z,15.85
2022-09-21T17:55:16.428Z,15.60
2022-09-21T17:58:34.748Z,15.56
2022-09-21T18:01:42.171Z,15.42
2022-09-21T18:04:38.883Z,15.29
2022-09-21T18:07:36.227Z,15.25
2022-09-21T18:10:34.399Z,15.18
2022-09-21T18:13:48.792Z,15.09
2022-09-21T18:16:52.091Z,14.91
2022-09-21T18:20:18.455Z,14.90
2022-09-21T18:23:40.522Z,14.84
2022-09-21T18:26:39.277Z,14.74
2022-09-21T18:29:40.433Z,14.75
2022-09-21T18:32:41.104Z,14.87
2022-09-21T18:35:44.717Z,14.95
2022-09-21T18:39:12.199Z,14.78
2022-09-21T18:42:28.703Z,14.73
2022-09-21T18:45:32.060Z,14.68
2022-09-21T18:49:06.819Z,14.62
2022-09-21T18:52:23.010Z,14.40
2022-09-21T18:55:28.119Z,14.38
2022-09-21T18:58:25.364Z,14.22
2022-09-21T19:01:23.586Z,14.17
2022-09-21T19:04:21.220Z,14.09
2022-09-21T19:07:23.886Z,14.01
2022-09-21T19:10:44.372Z,14.03
2022-09-21T19:14:05.955Z,14.08
2022-09-21T19:17:31.113Z,14.05
2022-09-21T19:20:40.343Z,13.96
2022-09-21T19:24:03.386Z,14.11
2022-09-21T19:27:31.257Z,13.92
2022-09-21T19:30:29.556Z,13.72
2022-09-21T19:33:48.805Z,13.66
2022-09-21T19:36:49.246Z,13.63
2022-09-21T19:39:46.222Z,13.67
2022-09-21T19:43:10.820Z,13.56
2022-09-21T19:46:41.681Z,13.40
2022-09-21T19:50:16.861Z,13.38
2022-09-21T19:53:33.420Z,13.39
2022-09-21T19:56:52.125Z,13.35
2022-09-21T19:59:52.360Z,13.38
2022-09-21T20:02:58.187Z,13.36
2022-09-21T20:05:59.632Z,13.34
2022-09-21T20:09:08.471Z,13.19
2022-09-21T20:12:25.929Z,13.14
2022-09-21T20:15:28.826Z,13.11
2022-09-21T20:18:30.550Z,13.16
2022-09-21T20:21:39.556Z,13.26
2022-09-21T20:24:54.236Z,13.11
2022-09-21T20:27:58.521Z,12.85
2022-09-21T20:30:55.104Z,12.92
2022-09-21T20:33:52.067Z,13.09
2022-09-21T20:36:49.211Z,13.14
2022-09-21T20:39:46.460Z,13.12
2022-09-21T20:42:43.869Z,12.99
2022-09-21T20:45:41.296Z,12.73
2022-09-21T20:48:38.461Z,12.43
2022-09-21T20:51:36.449Z,12.44
2022-09-21T20:54:33.262Z,12.39
2022-09-21T20:57:31.948Z,12.29
2022-09-21T21:00:29.388Z,12.26
2022-09-21T21:03:26.075Z,12.30
2022-09-21T21:06:23.336Z,12.32
2022-09-21T21:09:20.322Z,12.24
2022-09-21T21:12:17.896Z,12.12
2022-09-21T21:15:15.972Z,11.86
2022-09-21T21:18:13.515Z,11.77
2022-09-21T21:21:10.298Z,11.99
2022-09-21T21:24:25.805Z,12.23
2022-09-21T21:27:24.167Z,12.84
2022-09-21T21:30:23.825Z,12.98
2022-09-21T21:33:22.252Z,13.00
2022-09-21T21:36:19.074Z,12.81
2022-09-21T21:39:16.005Z,12.65
2022-09-21T21:42:13.781Z,12.46
2022-09-21T21:45:11.334Z,12.13
2022-09-21T21:48:09.498Z,12.11
2022-09-21T21:51:06.845Z,12.05
2022-09-21T21:54:04.363Z,11.80
2022-09-21T21:57:01.551Z,11.75
2022-09-21T22:00:00.133Z,11.91
2022-09-21T22:02:57.846Z,11.89
2022-09-21T22:05:56.036Z,11.80
2022-09-21T22:08:53.437Z,11.83
2022-09-21T22:11:50.474Z,11.77
2022-09-21T22:14:47.784Z,11.46
2022-09-21T22:17:45.369Z,11.29
2022-09-21T22:20:42.444Z,11.07
2022-09-21T22:23:39.592Z,11.02
2022-09-21T22:26:40.953Z,11.26
2022-09-21T22:29:39.063Z,11.28
2022-09-21T22:32:36.604Z,11.14
2022-09-21T22:35:34.130Z,11.19
2022-09-21T22:38:31.905Z,11.29
2022-09-21T22:41:30.376Z,11.30
2022-09-21T22:44:27.335Z,11.17
2022-09-21T22:47:24.258Z,11.14
2022-09-21T22:50:21.380Z,11.07
2022-09-21T22:53:17.997Z,10.93
2022-09-21T22:56:19.997Z,10.81
2022-09-21T22:59:17.428Z,10.82
2022-09-21T23:02:14.350Z,10.82
2022-09-21T23:05:13.579Z,10.78
2022-09-21T23:08:10.399Z,10.82
2022-09-21T23:11:14.192Z,10.79
2022-09-21T23:14:11.514Z,10.85
2022-09-21T23:17:08.620Z,10.87
2022-09-21T23:20:06.412Z,10.98
2022-09-21T23:23:03.734Z,11.02
2022-09-21T23:26:27.730Z,10.88
2022-09-21T23:29:25.249Z,10.80
2022-09-21T23:32:23.198Z,10.86
2022-09-21T23:35:20.381Z,10.80
2022-09-21T23:38:17.716Z,10.89
2022-09-21T23:41:20.721Z,10.87
2022-09-21T23:44:18.445Z,10.87
2022-09-21T23:47:15.485Z,10.86
2022-09-21T23:50:12.396Z,10.94
2022-09-21T23:53:09.331Z,10.93
2022-09-21T23:56:07.174Z,10.92
2022-09-21T23:59:05.579Z,11.01
